createdAt,value
2022-12-11T00:01:24.722Z,3.60
2022-12-11T00:06:28.258Z,3.50
2022-12-11T00:11:30.355Z,3.40
2022-12-11T00:16:32.520Z,3.30
2022-12-11T00:21:36.748Z,3.30
2022-12-11T00:26:39.209Z,3.30
2022-12-11T00:31:41.477Z,3.30
2022-12-11T00:36:45.069Z,3.30
2022-12-11T00:41:47.126Z,3.30
2022-12-11T00:46:49.249Z,3.20
2022-12-11T00:51:52.803Z,3.20
2022-12-11T00:56:55.984Z,3.10
2022-12-11T01:01:58.174Z,3.10
2022-12-11T01:07:01.749Z,3.00
2022-12-11T01:12:04.194Z,3.00
2022-12-11T01:17:06.346Z,3.00
2022-12-11T01:22:09.892Z,3.00
2022-12-11T01:27:11.976Z,3.00
2022-12-11T01:32:14.049Z,2.90
2022-12-11T01:37:17.532Z,2.90
2022-12-11T01:42:20.989Z,2.90
2022-12-11T01:47:23.114Z,2.90
2022-12-11T01:52:26.705Z,2.90
2022-12-11T01:57:29.498Z,3.00
2022-12-11T02:02:33.208Z,2.90
2022-12-11T02:07:42.799Z,3.00
2022-12-11T02:12:57.199Z,2.90
2022-12-11T02:18:09.064Z,2.90
2022-12-11T02:23:52.881Z,2.80
2022-12-11T02:29:02.748Z,2.70
2022-12-11T02:34:10.427Z,2.70
2022-12-11T02:39:16.055Z,2.70
2022-12-11T02:44:23.592Z,2.60
2022-12-11T02:49:28.188Z,2.60
2022-12-11T02:54:33.170Z,2.60
2022-12-11T02:59:39.695Z,2.50
2022-12-11T03:04:43.405Z,2.50
2022-12-11T03:09:47.705Z,2.40
2022-12-11T03:14:51.513Z,2.40
2022-12-11T03:20:02.288Z,2.30
2022-12-11T03:25:07.969Z,2.30
2022-12-11T03:30:16.187Z,2.40
2022-12-11T03:35:21.459Z,2.50
2022-12-11T03:40:25.458Z,2.50
2022-12-11T03:45:30.536Z,2.50
2022-12-11T03:50:35.166Z,2.50
2022-12-11T03:55:39.731Z,2.50
2022-12-11T04:00:43.269Z,2.60
2022-12-11T04:05:47.716Z,2.50
2022-12-11T04:10:50.686Z,2.40
2022-12-11T04:15:55.333Z,2.30
2022-12-11T04:20:57.543Z,2.30
2022-12-11T04:26:05.017Z,2.20
2022-12-11T04:31:11.898Z,2.10
2022-12-11T04:36:14.681Z,2.00
2022-12-11T04:41:17.884Z,2.00
2022-12-11T04:46:24.330Z,1.90
2022-12-11T04:51:26.864Z,1.90
2022-12-11T04:56:29.014Z,1.90
2022-12-11T05:01:32.514Z,1.80
2022-12-11T05:06:34.616Z,1.80
2022-12-11T05:11:36.849Z,1.80
2022-12-11T05:16:40.333Z,1.90
2022-12-11T05:21:42.415Z,1.90
2022-12-11T05:26:44.470Z,1.90
2022-12-11T05:31:48.004Z,2.00
2022-12-11T05:36:50.133Z,2.00
2022-12-11T05:41:52.166Z,2.00
2022-12-11T05:46:55.814Z,2.00
2022-12-11T05:51:57.988Z,2.10
2022-12-11T05:57:00.054Z,2.10
2022-12-11T06:02:03.712Z,2.10
2022-12-11T06:07:05.885Z,2.10
2022-12-11T06:12:08.083Z,2.20
2022-12-11T06:17:11.645Z,2.20
2022-12-11T06:22:13.742Z,2.20
2022-12-11T06:27:15.881Z,2.20
2022-12-11T06:32:19.446Z,2.30
2022-12-11T06:37:21.558Z,2.30
2022-12-11T06:42:23.649Z,2.20
2022-12-11T06:47:27.483Z,2.20
2022-12-11T06:52:29.680Z,2.20
2022-12-11T06:57:31.725Z,2.20
2022-12-11T07:02:35.275Z,2.20
2022-12-11T07:07:37.458Z,2.20
2022-12-11T07:12:39.603Z,2.20
2022-12-11T07:17:43.178Z,2.30
2022-12-11T07:22:46.780Z,2.30
2022-12-11T07:27:49.572Z,2.30
2022-12-11T07:32:53.120Z,2.40
2022-12-11T07:37:55.287Z,2.40
2022-12-11T07:42:57.434Z,2.40
2022-12-11T07:48:00.978Z,2.40
2022-12-11T07:53:03.084Z,2.40
2022-12-11T07:58:05.178Z,2.40
2022-12-11T08:03:08.689Z,2.40
2022-12-11T08:08:10.799Z,2.30
2022-12-11T08:13:13.039Z,2.30
2022-12-11T08:18:16.553Z,2.30
2022-12-11T08:23:18.950Z,2.30
2022-12-11T08:28:21.125Z,2.30
2022-12-11T08:33:25.700Z,2.20
2022-12-11T08:38:28.052Z,2.20
2022-12-11T08:43:30.092Z,2.20
2022-12-11T08:48:33.901Z,2.20
2022-12-11T08:53:36.060Z,2.20
2022-12-11T08:58:38.238Z,2.30
2022-12-11T09:03:42.461Z,2.30
2022-12-11T09:08:51.956Z,2.30
2022-12-11T09:13:54.835Z,2.30
2022-12-11T09:18:59.460Z,2.40
2022-12-11T09:24:02.278Z,2.40
2022-12-11T09:29:05.471Z,2.40
2022-12-11T09:34:13.676Z,2.50
2022-12-11T09:39:17.062Z,2.50
2022-12-11T09:44:30.231Z,2.50
2022-12-11T09:49:39.404Z,2.60
2022-12-11T09:54:48.086Z,2.60
2022-12-11T10:00:14.578Z,2.60
2022-12-11T10:05:27.781Z,2.70
2022-12-11T10:10:41.764Z,2.70
2022-12-11T10:15:51.975Z,2.70
2022-12-11T10:20:55.655Z,2.70
2022-12-11T10:26:04.679Z,2.70
2022-12-11T10:31:16.026Z,2.70
2022-12-11T10:36:24.112Z,2.70
2022-12-11T10:41:36.947Z,2.70
2022-12-11T10:46:39.104Z,2.80
2022-12-11T10:51:42.689Z,2.80
2022-12-11T10:56:48.208Z,2.80
2022-12-11T11:01:50.873Z,2.80
2022-12-11T11:07:04.151Z,2.90
2022-12-11T11:12:19.404Z,2.90
2022-12-11T11:17:21.763Z,2.90
2022-12-11T11:22:25.401Z,2.90
2022-12-11T11:27:35.413Z,2.90
2022-12-11T11:32:40.560Z,3.00
2022-12-11T11:37:53.357Z,3.00
2022-12-11T11:43:05.164Z,2.90
2022-12-11T11:48:22.257Z,2.90
2022-12-11T11:53:32.124Z,2.90
2022-12-11T11:58:41.797Z,2.90
2022-12-11T12:03:45.192Z,2.90
2022-12-11T12:08:56.225Z,2.90
2022-12-11T12:14:22.730Z,2.90
2022-12-11T12:19:43.539Z,2.90
2022-12-11T12:24:55.248Z,3.00
2022-12-11T12:30:03.497Z,3.00
2022-12-11T12:35:16.170Z,3.00
2022-12-11T12:40:28.985Z,3.00
2022-12-11T12:45:37.168Z,3.00
2022-12-11T12:50:43.164Z,2.90
2022-12-11T12:55:48.051Z,3.00
2022-12-11T13:00:50.288Z,2.90
2022-12-11T13:05:59.309Z,3.00
2022-12-11T13:11:06.311Z,3.00
2022-12-11T13:16:23.089Z,3.00
2022-12-11T13:21:29.721Z,3.00
2022-12-11T13:26:34.492Z,3.00
2022-12-11T13:31:38.827Z,3.00
2022-12-11T13:36:46.295Z,3.00
2022-12-11T13:41:53.493Z,3.00
2022-12-11T13:46:58.806Z,3.00
2022-12-11T13:52:01.632Z,2.90
2022-12-11T13:57:17.439Z,2.90
2022-12-11T14:02:24.010Z,2.90
2022-12-11T14:07:30.531Z,2.90
2022-12-11T14:12:34.184Z,2.90
2022-12-11T14:17:36.410Z,2.90
2022-12-11T14:22:38.517Z,2.90
2022-12-11T14:27:49.036Z,2.90
2022-12-11T14:32:52.808Z,3.00
2022-12-11T14:37:55.527Z,3.00
2022-12-11T14:43:03.062Z,3.00
2022-12-11T14:48:12.342Z,3.00
2022-12-11T14:53:19.420Z,3.00
2022-12-11T14:58:25.482Z,3.00
2022-12-11T15:03:33.816Z,3.00
2022-12-11T15:08:36.366Z,3.00
2022-12-11T15:13:51.448Z,3.00
2022-12-11T15:18:56.214Z,3.00
2022-12-11T15:24:00.575Z,3.00
2022-12-11T15:29:06.145Z,2.90
2022-12-11T15:34:22.284Z,2.90
2022-12-11T15:39:24.564Z,2.90
2022-12-11T15:44:28.138Z,2.90
2022-12-11T15:49:30.215Z,2.80
2022-12-11T15:54:32.310Z,2.80
2022-12-11T15:59:35.903Z,2.80
2022-12-11T16:04:38.006Z,2.80
2022-12-11T16:09:40.170Z,2.80
2022-12-11T16:14:44.428Z,2.80
2022-12-11T16:19:46.666Z,2.80
2022-12-11T16:24:53.027Z,2.70
2022-12-11T16:29:56.630Z,2.70
2022-12-11T16:34:59.396Z,2.60
2022-12-11T16:40:01.540Z,2.60
2022-12-11T16:45:08.484Z,2.60
2022-12-11T16:50:12.331Z,2.60
2022-12-11T16:55:15.274Z,2.60
2022-12-11T17:00:19.278Z,2.60
2022-12-11T17:05:21.397Z,2.60
2022-12-11T17:10:23.539Z,2.60
2022-12-11T17:15:27.026Z,2.60
2022-12-11T17:20:29.131Z,2.60
2022-12-11T17:25:31.208Z,2.60
2022-12-11T17:30:35.128Z,2.60
2022-12-11T17:35:37.389Z,2.60
2022-12-11T17:40:40.961Z,2.60
2022-12-11T17:45:47.082Z,2.70
2022-12-11T17:50:51.185Z,2.70
2022-12-11T17:55:53.416Z,2.70
2022-12-11T18:00:58.224Z,2.70
2022-12-11T18:06:05.643Z,2.70
2022-12-11T18:11:10.040Z,2.70
2022-12-11T18:16:15.904Z,2.70
2022-12-11T18:21:20.620Z,2.70
2022-12-11T18:26:23.135Z,2.70
2022-12-11T18:31:26.808Z,2.70
2022-12-11T18:36:29.502Z,2.70
2022-12-11T18:41:31.695Z,2.70
2022-12-11T18:46:35.235Z,2.70
2022-12-11T18:51:37.377Z,2.70
2022-12-11T18:56:39.525Z,2.70
2022-12-11T19:01:43.122Z,2.60
2022-12-11T19:06:45.247Z,2.60
2022-12-11T19:11:47.503Z,2.60
2022-12-11T19:16:51.295Z,2.60
2022-12-11T19:21:53.397Z,2.60
2022-12-11T19:26:55.529Z,2.60
2022-12-11T19:32:01.755Z,2.60
2022-12-11T19:37:03.919Z,2.60
2022-12-11T19:42:06.551Z,2.60
2022-12-11T19:47:10.153Z,2.60
2022-12-11T19:52:12.310Z,2.60
2022-12-11T19:57:14.478Z,2.60
2022-12-11T20:02:18.062Z,2.60
2022-12-11T20:07:20.210Z,2.60
2022-12-11T20:12:22.337Z,2.60
2022-12-11T20:17:25.932Z,2.70
2022-12-11T20:22:28.179Z,2.70
2022-12-11T20:27:31.149Z,2.70
2022-12-11T20:32:35.194Z,2.70
2022-12-11T20:37:37.430Z,2.70
2022-12-11T20:42:40.117Z,2.70
2022-12-11T20:47:44.220Z,2.70
2022-12-11T20:52:46.326Z,2.70
2022-12-11T20:57:48.434Z,2.70
2022-12-11T21:02:52.265Z,2.70
2022-12-11T21:07:54.995Z,2.70
2022-12-11T21:12:57.170Z,2.70
2022-12-11T21:18:00.823Z,2.70
2022-12-11T21:23:03.067Z,2.70
2022-12-11T21:28:05.917Z,2.70
2022-12-11T21:33:10.394Z,2.70
2022-12-11T21:38:12.491Z,2.70
2022-12-11T21:43:14.596Z,2.80
2022-12-11T21:48:18.118Z,2.80
2022-12-11T21:53:20.213Z,2.80
2022-12-11T21:58:22.374Z,2.80
2022-12-11T22:03:25.895Z,2.80
2022-12-11T22:08:28.091Z,2.80
2022-12-11T22:13:30.698Z,2.80
2022-12-11T22:18:34.286Z,2.80
2022-12-11T22:23:38.436Z,2.90
2022-12-11T22:28:40.557Z,2.90
2022-12-11T22:33:44.191Z,2.90
2022-12-11T22:38:46.594Z,2.90
2022-12-11T22:43:48.737Z,2.90
2022-12-11T22:48:52.902Z,2.90
2022-12-11T22:53:55.065Z,2.90
2022-12-11T22:58:57.463Z,2.90
2022-12-11T23:04:00.974Z,2.80
2022-12-11T23:09:03.384Z,2.80
2022-12-11T23:14:08.508Z,2.80
2022-12-11T23:19:13.139Z,2.70
2022-12-11T23:24:15.475Z,2.70
2022-12-11T23:29:17.599Z,2.60
2022-12-11T23:34:21.217Z,2.50
2022-12-11T23:39:23.292Z,2.30
2022-12-11T23:44:25.352Z,2.20
2022-12-11T23:49:28.895Z,2.00
2022-12-11T23:54:31.078Z,1.90
2022-12-11T23:59:33.217Z,1.80
